LCLK/LCA METAR and TAF weather

Enter ICAO airport designator
Station Type Date Time Source
LCLK METAR 2019/06/26 16:30 UTC NOAA

LCLK 261630Z 21009KT CAVOK 32/22 Q1008 NOSIG


Station Type Date Time Source
LCLK Decoded METAR 2019/06/26 16:30 UTC NOAA

Larnaca Airport, Cyprus (LCLK) 34-53N 033-38E 2M
Jun 26, 2019 - 12:30 PM EDT / 2019.06.26 1630 UTC
Wind: from the SSW (210 degrees) at 10 MPH (9 KT):0
Visibility: greater than 7 mile(s):0
Temperature: 89 F (32 C)
Heat index: 95.0 F (35.0 C):1
Dew Point: 71 F (22 C)
Relative Humidity: 55%
Pressure (altimeter): 29.77 in. Hg (1008 hPa)
ob: LCLK 261630Z 21009KT CAVOK 32/22 Q1008 NOSIG
cycle: 16

Station Type Date Time Source
LCLK TAF 2019/06/26 12:33 UTC NOAA

TAF TAF LCLK 261130Z 2612/2712 21016KT 9999 FEW020
BECMG 2616/2620 30007KT PROB30
TEMPO 2622/2706 3000 BR BKN004
BECMG 2708/2712 21017KT

Example: see airport list